| time (UTC) | temp F | wind direction | speed MPH | gust MPH | rain 1hr in | rain 24hr in | rain mn in | humidity % | barometer mb |
| 20260505223513 | 55 | 217 | 3.0 | 9.0 | 0.12 | 0.25 | 0.00 | 90 | 1185.2 |
| 20260505223010 | 55 | 246 | 6.0 | 9.0 | 0.13 | 0.26 | 0.00 | 90 | 1185.4 |
| 20260505222510 | 55 | 231 | 4.0 | 9.0 | 0.12 | 0.25 | 0.00 | 90 | 1185.5 |
| 20260505222010 | 55 | 212 | 3.0 | 10.0 | 0.13 | 0.24 | 0.00 | 90 | 1185.6 |
| 20260505221513 | 55 | 206 | 2.0 | 12.0 | 0.13 | 0.23 | 0.00 | 90 | 1185.7 |
| 20260505221011 | 55 | 232 | 6.0 | 11.0 | 0.13 | 0.22 | 0.00 | 90 | 1185.8 |
| 20260505220510 | 55 | 228 | 11.0 | 12.0 | 0.12 | 0.22 | 0.00 | 90 | 1185.9 |
| 20260505220013 | 56 | 228 | 6.0 | 16.0 | 0.13 | 0.22 | 0.00 | 90 | 1186.0 |
| 20260505215510 | 56 | 228 | 9.0 | 16.0 | 0.11 | 0.20 | 0.00 | 90 | 1186.1 |
| 20260505215010 | 56 | 213 | 16.0 | 20.0 | 0.14 | 0.19 | 0.00 | 90 | 1186.3 |
| 20260505214516 | 56 | 208 | 13.0 | 21.0 | 0.15 | 0.18 | 0.00 | 89 | 1186.5 |
| 20260505214011 | 57 | 215 | 16.0 | 21.0 | 0.14 | 0.17 | 0.00 | 89 | 1186.6 |
| 20260505213516 | 57 | 201 | 16.0 | 21.0 | 0.11 | 0.14 | 0.00 | 89 | 1186.7 |
| 20260505213010 | 58 | 222 | 11.0 | 22.0 | 0.11 | 0.13 | 0.00 | 89 | 1186.7 |
| 20260505212516 | 58 | 223 | 12.0 | 18.0 | 0.10 | 0.12 | 0.00 | 89 | 1186.7 |
| 20260505212010 | 58 | 196 | 16.0 | 23.0 | 0.08 | 0.11 | 0.00 | 88 | 1186.6 |
| 20260505211519 | 59 | 219 | 16.0 | 23.0 | 0.07 | 0.10 | 0.00 | 88 | 1186.6 |
| 20260505211011 | 59 | 207 | 13.0 | 21.0 | 0.07 | 0.09 | 0.00 | 86 | 1186.5 |
| 20260505210510 | 59 | 207 | 13.0 | 20.0 | 0.07 | 0.09 | 0.00 | 85 | 1186.4 |
| 20260505210010 | 60 | 197 | 10.0 | 21.0 | 0.06 | 0.08 | 0.00 | 82 | 1186.4 |
| 20260505205510 | 61 | 187 | 13.0 | 21.0 | 0.06 | 0.08 | 0.00 | 76 | 1186.3 |
| 20260505205010 | 63 | 211 | 21.0 | 21.0 | 0.02 | 0.04 | 0.00 | 71 | 1186.2 |
| 20260505204513 | 64 | 203 | 7.0 | 9.0 | 0.00 | 0.03 | 0.00 | 69 | 1006.4 |
| 20260505204017 | 64 | 196 | 4.0 | 13.0 | 0.00 | 0.03 | 0.00 | 67 | 1006.2 |
| 20260505203516 | 64 | 202 | 8.0 | 8.0 | 0.00 | 0.02 | 0.00 | 65 | 1006.0 |
| 20260505203013 | 65 | 189 | 4.0 | 12.0 | 0.00 | 0.02 | 0.00 | 63 | 1005.8 |
| 20260505202510 | 64 | 223 | 9.0 | 13.0 | 0.00 | 0.02 | 0.00 | 64 | 1005.5 |
| 20260505202013 | 64 | 219 | 11.0 | 15.0 | 0.00 | 0.02 | 0.00 | 64 | 1005.4 |
| 20260505201520 | 64 | 199 | 9.0 | 11.0 | 0.00 | 0.02 | 0.00 | 66 | 1005.5 |
| 20260505201019 | 63 | 120 | 6.0 | 11.0 | 0.00 | 0.02 | 0.00 | 67 | 1005.5 |
| 20260505200513 | 63 | 213 | 5.0 | 9.0 | 0.00 | 0.02 | 0.00 | 67 | 1005.3 |
| 20260505200010 | 63 | 128 | 4.0 | 10.0 | 0.00 | 0.02 | 0.00 | 68 | 1005.3 |
| 20260505195516 | 63 | 164 | 3.0 | 5.0 | 0.00 | 0.02 | 0.00 | 68 | 1005.0 |
| 20260505195010 | 63 | 226 | 3.0 | 8.0 | 0.00 | 0.02 | 0.00 | 68 | 1004.8 |
| 20260505194511 | 63 | 282 | 3.0 | 8.0 | 0.00 | 0.02 | 0.00 | 68 | 1004.7 |
| 20260505194010 | 64 | 277 | 3.0 | 8.0 | 0.00 | 0.02 | 0.00 | 67 | 1004.7 |
| 20260505193513 | 64 | 277 | 3.0 | 9.0 | 0.00 | 0.02 | 0.00 | 66 | 1004.6 |
| 20260505193013 | 64 | 282 | 6.0 | 9.0 | 0.00 | 0.02 | 0.00 | 64 | 1004.6 |
| 20260505192513 | 65 | 268 | 5.0 | 8.0 | 0.00 | 0.02 | 0.00 | 63 | 1004.6 |
| 20260505192010 | 65 | 321 | 4.0 | 8.0 | 0.00 | 0.02 | 0.00 | 63 | 1004.6 |
| 20260505191517 | 65 | 310 | 6.0 | 8.0 | 0.00 | 0.02 | 0.00 | 62 | 1004.6 |
| 20260505191019 | 65 | 310 | 6.0 | 9.0 | 0.00 | 0.02 | 0.00 | 62 | 1004.8 |
| 20260505190510 | 65 | 333 | 3.0 | 10.0 | 0.00 | 0.02 | 0.00 | 61 | 1004.8 |
| 20260505190013 | 65 | 9 | 4.0 | 10.0 | 0.00 | 0.02 | 0.00 | 60 | 1004.9 |
| 20260505185513 | 65 | 4 | 2.0 | 11.0 | 0.00 | 0.02 | 0.00 | 60 | 1004.9 |
| 20260505185011 | 66 | 325 | 5.0 | 11.0 | 0.00 | 0.02 | 0.00 | 59 | 1004.9 |
| 20260505184510 | 66 | 307 | 2.0 | 8.0 | 0.00 | 0.02 | 0.00 | 59 | 1004.9 |
| 20260505184019 | 66 | 354 | 3.0 | 12.0 | 0.00 | 0.02 | 0.00 | 60 | 1004.9 |
| 20260505183510 | 66 | 14 | 5.0 | 11.0 | 0.00 | 0.02 | 0.00 | 60 | 1004.8 |
| 20260505183016 | 66 | 37 | 7.0 | 11.0 | 0.00 | 0.02 | 0.00 | 59 | 1004.7 |
| 20260505182513 | 66 | 7 | 10.0 | 10.0 | 0.00 | 0.02 | 0.00 | 58 | 1004.6 |
| 20260505182014 | 67 | 310 | 2.0 | 14.0 | 0.00 | 0.02 | 0.00 | 57 | 1004.4 |
| 20260505181519 | 67 | 21 | 8.0 | 13.0 | 0.00 | 0.02 | 0.00 | 57 | 1004.6 |
| 20260505181010 | 67 | 38 | 5.0 | 12.0 | 0.00 | 0.02 | 0.00 | 56 | 1004.6 |
| 20260505180510 | 67 | 145 | 5.0 | 15.0 | 0.00 | 0.02 | 0.00 | 56 | 1004.7 |
| 20260505180010 | 67 | 4 | 7.0 | 13.0 | 0.00 | 0.02 | 0.00 | 57 | 1004.9 |
| 20260505175519 | 67 | 21 | 7.0 | 12.0 | 0.00 | 0.02 | 0.00 | 58 | 1005.0 |
| 20260505175011 | 67 | 35 | 4.0 | 13.0 | 0.00 | 0.02 | 0.00 | 57 | 1005.1 |
| 20260505174510 | 67 | 83 | 4.0 | 14.0 | 0.00 | 0.02 | 0.00 | 57 | 1005.1 |
| 20260505174013 | 67 | 37 | 5.0 | 18.0 | 0.00 | 0.02 | 0.00 | 58 | 1005.1 |
| 20260505173510 | 67 | 104 | 5.0 | 15.0 | 0.00 | 0.02 | 0.00 | 58 | 1005.1 |
| 20260505173013 | 67 | 14 | 6.0 | 16.0 | 0.00 | 0.02 | 0.00 | 58 | 1005.2 |
| 20260505172517 | 67 | 8 | 5.0 | 19.0 | 0.00 | 0.02 | 0.00 | 57 | 1005.2 |
| 20260505172010 | 68 | 38 | 13.0 | 19.0 | 0.00 | 0.02 | 0.00 | 56 | 1005.2 |
| 20260505171519 | 68 | 118 | 10.0 | 15.0 | 0.00 | 0.02 | 0.00 | 56 | 1005.3 |
| 20260505171013 | 68 | 129 | 4.0 | 13.0 | 0.00 | 0.02 | 0.00 | 55 | 1005.3 |
| 20260505170513 | 68 | 358 | 4.0 | 16.0 | 0.00 | 0.02 | 0.00 | 55 | 1005.4 |
| 20260505170010 | 68 | 60 | 5.0 | 15.0 | 0.00 | 0.02 | 0.00 | 55 | 1005.5 |
| 20260505165517 | 69 | 149 | 2.0 | 15.0 | 0.00 | 0.02 | 0.00 | 54 | 1005.5 |
| 20260505165010 | 69 | 83 | 16.0 | 18.0 | 0.00 | 0.02 | 0.00 | 52 | 1005.5 |
| 20260505164510 | 71 | 147 | 3.0 | 18.0 | 0.00 | 0.02 | 0.00 | 49 | 1005.4 |
| 20260505164016 | 72 | 64 | 9.0 | 19.0 | 0.00 | 0.02 | 0.00 | 47 | 1005.4 |
| 20260505163511 | 74 | 77 | 6.0 | 8.0 | 0.00 | 0.02 | 0.00 | 42 | 1005.4 |
| 20260505163013 | 74 | 301 | 3.0 | 4.0 | 0.00 | 0.02 | 0.00 | 42 | 1005.1 |
| 20260505162510 | 74 | 358 | 0.0 | 7.0 | 0.00 | 0.02 | 0.00 | 41 | 1005.0 |
| 20260505162010 | 74 | 345 | 2.0 | 4.0 | 0.00 | 0.02 | 0.00 | 41 | 1005.0 |
| 20260505161510 | 74 | 31 | 1.0 | 5.0 | 0.00 | 0.02 | 0.00 | 42 | 1005.0 |
| 20260505161013 | 74 | 282 | 2.0 | 8.0 | 0.00 | 0.02 | 0.00 | 42 | 1005.0 |
| 20260505160517 | 74 | 315 | 6.0 | 8.0 | 0.00 | 0.02 | 0.00 | 42 | 1005.0 |
| 20260505153010 | 76 | 1 | 2.0 | 5.0 | 0.00 | 0.02 | 0.00 | 43 | 1005.3 |
| 20260505152516 | 75 | 4 | 4.0 | 5.0 | 0.00 | 0.02 | 0.00 | 44 | 1005.4 |
| 20260505152010 | 74 | 325 | 1.0 | 6.0 | 0.00 | 0.02 | 0.00 | 45 | 1005.4 |
| 20260505151516 | 73 | 325 | 3.0 | 8.0 | 0.00 | 0.02 | 0.00 | 46 | 1005.5 |
| 20260505151010 | 73 | 326 | 2.0 | 5.0 | 0.00 | 0.02 | 0.00 | 46 | 1005.3 |
| 20260505150514 | 73 | 282 | 4.0 | 8.0 | 0.00 | 0.02 | 0.00 | 45 | 1005.5 |
| 20260505140514 | 74 | 15 | 7.0 | 14.0 | 0.00 | 0.02 | 0.00 | 43 | 1005.9 |
| 20260505125010 | 75 | 318 | 4.0 | 8.0 | 0.00 | 0.02 | 0.00 | 41 | 1006.4 |
| 20260505124520 | 75 | 343 | 1.0 | 8.0 | 0.00 | 0.02 | 0.00 | 41 | 1006.5 |
| 20260505124010 | 75 | 233 | 3.0 | 8.0 | 0.00 | 0.02 | 0.00 | 42 | 1006.5 |
| 20260505123510 | 74 | 268 | 2.0 | 12.0 | 0.00 | 0.02 | 0.00 | 42 | 1006.6 |
| 20260505123013 | 74 | 112 | 1.0 | 11.0 | 0.00 | 0.02 | 0.00 | 42 | 1006.7 |
| 20260505122513 | 74 | 145 | 4.0 | 9.0 | 0.00 | 0.02 | 0.00 | 43 | 1006.7 |
| 20260505122010 | 74 | 326 | 4.0 | 10.0 | 0.00 | 0.02 | 0.00 | 43 | 1006.8 |
| 20260505121512 | 73 | 6 | 3.0 | 11.0 | 0.00 | 0.02 | 0.00 | 43 | 1006.8 |
| 20260505121010 | 74 | 4 | 5.0 | 9.0 | 0.00 | 0.02 | 0.00 | 44 | 1006.9 |
| 20260505120513 | 74 | 293 | 6.0 | 9.0 | 0.00 | 0.02 | 0.00 | 44 | 1006.9 |
| 20260505120016 | 74 | 315 | 4.0 | 7.0 | 0.00 | 0.02 | 0.00 | 45 | 1007.0 |
| 20260505115516 | 74 | 345 | 3.0 | 6.0 | 0.00 | 0.02 | 0.00 | 45 | 1007.0 |
| 20260505115010 | 73 | 320 | 0.0 | 5.0 | 0.00 | 0.02 | 0.00 | 45 | 1007.0 |
| 20260505114514 | 73 | 263 | 6.0 | 9.0 | 0.00 | 0.02 | 0.00 | 45 | 1007.0 |
| 20260505114013 | 74 | 287 | 7.0 | 9.0 | 0.00 | 0.02 | 0.00 | 44 | 1007.1 |
| 20260505113510 | 74 | 4 | 5.0 | 7.0 | 0.00 | 0.02 | 0.00 | 45 | 1007.1 |
| 20260505113010 | 73 | 282 | 1.0 | 6.0 | 0.00 | 0.02 | 0.00 | 45 | 1007.2 |
| 20260505112513 | 73 | 319 | 4.0 | 8.0 | 0.00 | 0.02 | 0.00 | 46 | 1007.3 |
| 20260505112010 | 73 | 185 | 2.0 | 7.0 | 0.00 | 0.02 | 0.00 | 46 | 1007.3 |
| 20260505111517 | 72 | 277 | 2.0 | 6.0 | 0.00 | 0.02 | 0.00 | 46 | 1007.4 |
| 20260505111010 | 72 | 257 | 4.0 | 5.0 | 0.00 | 0.02 | 0.00 | 47 | 1007.4 |
| 20260505110510 | 71 | 296 | 3.0 | 9.0 | 0.00 | 0.02 | 0.00 | 48 | 1007.4 |
| 20260505102013 | 71 | 305 | 2.0 | 7.0 | 0.00 | 0.02 | 0.00 | 51 | 1007.7 |
| 20260505101510 | 70 | 252 | 1.0 | 8.0 | 0.00 | 0.02 | 0.00 | 51 | 1007.7 |
| 20260505101016 | 69 | 297 | 1.0 | 8.0 | 0.00 | 0.02 | 0.00 | 51 | 1007.7 |
| 20260505100513 | 69 | 282 | 3.0 | 8.0 | 0.00 | 0.02 | 0.00 | 51 | 1007.7 |
| 20260505100010 | 70 | 282 | 5.0 | 10.0 | 0.00 | 0.02 | 0.00 | 51 | 1007.8 |
| 20260505095513 | 70 | 17 | 2.0 | 11.0 | 0.00 | 0.02 | 0.00 | 55 | 1007.8 |
| 20260505095014 | 70 | 320 | 2.0 | 9.0 | 0.00 | 0.02 | 0.00 | 54 | 1007.8 |
| 20260505094516 | 70 | 48 | 2.0 | 8.0 | 0.00 | 0.02 | 0.00 | 56 | 1007.8 |
| 20260505094010 | 70 | 68 | 2.0 | 11.0 | 0.00 | 0.02 | 0.00 | 56 | 1007.9 |
| 20260505093509 | 69 | 11 | 1.0 | 9.0 | 0.00 | 0.02 | 0.00 | 59 | 1007.9 |
| 20260505093013 | 68 | 317 | 4.0 | 8.0 | 0.00 | 0.02 | 0.00 | 58 | 1008.0 |
| 20260505092513 | 68 | 302 | 4.0 | 8.0 | 0.00 | 0.02 | 0.00 | 58 | 1008.0 |
| 20260505092014 | 69 | 294 | 4.0 | 7.0 | 0.00 | 0.02 | 0.00 | 58 | 1008.0 |
| 20260505091510 | 68 | 310 | 4.0 | 7.0 | 0.00 | 0.02 | 0.00 | 60 | 1008.1 |
| 20260505091010 | 68 | 287 | 2.0 | 5.0 | 0.00 | 0.02 | 0.00 | 61 | 1008.1 |
| 20260505090519 | 67 | 259 | 2.0 | 8.0 | 0.00 | 0.02 | 0.00 | 60 | 1008.2 |
| 20260505090014 | 67 | 277 | 4.0 | 9.0 | 0.00 | 0.02 | 0.00 | 61 | 1008.3 |
| 20260505085510 | 67 | 310 | 7.0 | 8.0 | 0.00 | 0.02 | 0.00 | 61 | 1008.3 |
| 20260505085010 | 66 | 199 | 4.0 | 8.0 | 0.00 | 0.02 | 0.00 | 62 | 1008.3 |
| 20260505084516 | 66 | 287 | 4.0 | 9.0 | 0.00 | 0.02 | 0.00 | 63 | 1008.3 |
| 20260505084013 | 66 | 295 | 2.0 | 7.0 | 0.00 | 0.02 | 0.00 | 62 | 1008.4 |
| 20260505083511 | 65 | 268 | 8.0 | 8.0 | 0.00 | 0.02 | 0.00 | 64 | 1008.4 |
| 20260505083013 | 65 | 314 | 5.0 | 8.0 | 0.00 | 0.02 | 0.00 | 65 | 1008.4 |
| 20260505082513 | 65 | 301 | 4.0 | 8.0 | 0.00 | 0.02 | 0.00 | 66 | 1008.4 |
| 20260505082013 | 65 | 282 | 6.0 | 10.0 | 0.00 | 0.02 | 0.00 | 66 | 1008.3 |
| 20260505081516 | 65 | 262 | 3.0 | 10.0 | 0.00 | 0.02 | 0.00 | 66 | 1008.4 |
| 20260505081016 | 65 | 323 | 4.0 | 9.0 | 0.00 | 0.02 | 0.00 | 67 | 1008.3 |
| 20260505080514 | 64 | 246 | 5.0 | 8.0 | 0.00 | 0.02 | 0.00 | 68 | 1008.4 |
| 20260505080013 | 64 | 287 | 3.0 | 8.0 | 0.00 | 0.02 | 0.00 | 68 | 1008.4 |
| 20260505075516 | 64 | 322 | 6.0 | 7.0 | 0.00 | 0.02 | 0.00 | 67 | 1008.5 |
| 20260505075010 | 64 | 277 | 5.0 | 6.0 | 0.00 | 0.02 | 0.00 | 69 | 1008.5 |
| 20260505074513 | 64 | 243 | 3.0 | 9.0 | 0.00 | 0.02 | 0.00 | 69 | 1008.6 |
| 20260505074010 | 64 | 265 | 3.0 | 7.0 | 0.00 | 0.02 | 0.00 | 71 | 1008.6 |
| 20260505073514 | 63 | 322 | 3.0 | 7.0 | 0.00 | 0.02 | 0.00 | 73 | 1008.7 |
| 20260505073010 | 63 | 282 | 6.0 | 6.0 | 0.00 | 0.02 | 0.00 | 73 | 1008.7 |
| 20260505072510 | 62 | 260 | 4.0 | 7.0 | 0.00 | 0.02 | 0.00 | 73 | 1008.7 |
| 20260505072013 | 63 | 270 | 2.0 | 6.0 | 0.00 | 0.02 | 0.00 | 74 | 1008.7 |
| 20260505071510 | 63 | 341 | 2.0 | 6.0 | 0.00 | 0.02 | 0.00 | 73 | 1008.7 |
| 20260505071013 | 63 | 298 | 4.0 | 8.0 | 0.00 | 0.02 | 0.00 | 72 | 1008.7 |
| 20260505070511 | 63 | 335 | 2.0 | 5.0 | 0.00 | 0.02 | 0.00 | 71 | 1008.8 |
| 20260505070010 | 63 | 345 | 3.0 | 7.0 | 0.00 | 0.02 | 0.00 | 71 | 1008.8 |
| 20260505065510 | 63 | 304 | 1.0 | 4.0 | 0.00 | 0.02 | 0.00 | 71 | 1008.9 |
| 20260505065016 | 63 | 338 | 1.0 | 3.0 | 0.00 | 0.02 | 0.00 | 70 | 1008.9 |
| 20260505064510 | 63 | 325 | 2.0 | 5.0 | 0.00 | 0.02 | 0.00 | 69 | 1008.9 |
| 20260505064010 | 63 | 246 | 1.0 | 7.0 | 0.00 | 0.02 | 0.00 | 69 | 1009.1 |
| 20260505063514 | 64 | 316 | 2.0 | 5.0 | 0.00 | 0.02 | 0.00 | 69 | 1009.1 |
| 20260505063013 | 63 | 295 | 2.0 | 4.0 | 0.00 | 0.02 | 0.00 | 72 | 1009.1 |
| 20260505062510 | 63 | 224 | 3.0 | 3.0 | 0.00 | 0.02 | 0.00 | 75 | 1009.1 |
| 20260505062010 | 61 | 323 | 0.0 | 4.0 | 0.00 | 0.02 | 0.00 | 77 | 1009.0 |
| 20260505061513 | 61 | 267 | 4.0 | 5.0 | 0.00 | 0.02 | 0.00 | 77 | 1009.1 |
| 20260505061010 | 61 | 308 | 3.0 | 5.0 | 0.00 | 0.02 | 0.00 | 77 | 1009.1 |
| 20260505060517 | 60 | 262 | 2.0 | 3.0 | 0.00 | 0.02 | 0.00 | 79 | 1009.3 |
| 20260505060012 | 60 | 231 | 2.0 | 3.0 | 0.00 | 0.02 | 0.00 | 79 | 1009.3 |
| 20260505055509 | 60 | 282 | 1.0 | 2.0 | 0.00 | 0.02 | 0.00 | 80 | 1009.3 |
| 20260505055010 | 60 | 277 | 0.0 | 3.0 | 0.00 | 0.02 | 0.00 | 80 | 1009.2 |
| 20260505054510 | 60 | 300 | 3.0 | 3.0 | 0.00 | 0.02 | 0.00 | 80 | 1009.2 |
| 20260505054009 | 60 | 304 | 1.0 | 2.0 | 0.00 | 0.02 | 0.00 | 80 | 1009.1 |
| 20260505053517 | 60 | 43 | 0.0 | 2.0 | 0.00 | 0.02 | 0.00 | 79 | 1009.2 |
| 20260505053013 | 60 | 1 | 1.0 | 2.0 | 0.00 | 0.02 | 0.00 | 77 | 1009.1 |
| 20260505052516 | 61 | 105 | 1.0 | 3.0 | 0.00 | 0.02 | 0.00 | 75 | 1009.1 |
| 20260505052016 | 61 | 282 | 2.0 | 3.0 | 0.00 | 0.02 | 0.00 | 74 | 1009.1 |
| 20260505051509 | 61 | 282 | 0.0 | 2.0 | 0.00 | 0.02 | 0.00 | 72 | 1009.1 |
| 20260505051010 | 61 | 265 | 1.0 | 3.0 | 0.00 | 0.02 | 0.00 | 72 | 1009.1 |
| 20260505050511 | 61 | 287 | 1.0 | 3.0 | 0.00 | 0.02 | 0.00 | 73 | 1009.2 |
| 20260505041510 | 58 | 253 | 1.0 | 3.0 | 0.00 | 0.02 | 0.00 | 77 | 1009.5 |
| 20260505041010 | 58 | 238 | 1.0 | 3.0 | 0.00 | 0.02 | 0.00 | 77 | 1009.4 |
| 20260505040511 | 58 | 238 | 0.0 | 2.0 | 0.00 | 0.02 | 0.00 | 77 | 1009.4 |
| 20260505040013 | 58 | 238 | 1.0 | 2.0 | 0.00 | 0.02 | 0.00 | 77 | 1009.4 |
| 20260505035513 | 58 | 238 | 1.0 | 4.0 | 0.00 | 0.02 | 0.00 | 77 | 1009.4 |
| 20260505035010 | 58 | 249 | 3.0 | 4.0 | 0.00 | 0.02 | 0.00 | 77 | 1009.4 |
| 20260505034510 | 58 | 244 | 2.0 | 3.0 | 0.00 | 0.02 | 0.00 | 76 | 1009.5 |
| 20260505034016 | 59 | 266 | 1.0 | 2.0 | 0.00 | 0.02 | 0.00 | 76 | 1009.5 |
| 20260505033514 | 59 | 267 | 2.0 | 3.0 | 0.00 | 0.02 | 0.00 | 76 | 1009.5 |
| 20260505033010 | 59 | 235 | 2.0 | 2.0 | 0.00 | 0.02 | 0.00 | 76 | 1009.5 |
| 20260505032510 | 59 | 231 | 1.0 | 2.0 | 0.00 | 0.02 | 0.00 | 77 | 1009.6 |
| 20260505032016 | 58 | 231 | 1.0 | 2.0 | 0.00 | 0.02 | 0.00 | 77 | 1009.7 |
| 20260505031513 | 59 | 231 | 0.0 | 2.0 | 0.00 | 0.02 | 0.00 | 78 | 1009.8 |
| 20260505031010 | 59 | 231 | 0.0 | 3.0 | 0.00 | 0.02 | 0.00 | 77 | 1009.8 |
| 20260505030514 | 59 | 231 | 2.0 | 3.0 | 0.00 | 0.02 | 0.00 | 77 | 1009.9 |
| 20260505030010 | 59 | 189 | 0.0 | 3.0 | 0.00 | 0.02 | 0.00 | 77 | 1009.9 |
| 20260505025510 | 59 | 223 | 2.0 | 3.0 | 0.00 | 0.02 | 0.00 | 77 | 1009.9 |
| 20260505025010 | 59 | 232 | 1.0 | 2.0 | 0.00 | 0.02 | 0.00 | 77 | 1009.9 |
| 20260505024516 | 59 | 232 | 0.0 | 2.0 | 0.00 | 0.02 | 0.00 | 77 | 1009.9 |
| 20260505024013 | 59 | 227 | 1.0 | 3.0 | 0.00 | 0.02 | 0.00 | 77 | 1009.9 |
| 20260505023511 | 59 | 254 | 2.0 | 4.0 | 0.00 | 0.02 | 0.00 | 77 | 1009.8 |
| 20260505023013 | 59 | 255 | 2.0 | 5.0 | 0.00 | 0.02 | 0.00 | 76 | 1009.8 |
| 20260505022513 | 59 | 258 | 1.0 | 4.0 | 0.00 | 0.02 | 0.00 | 76 | 1009.8 |
| 20260505022013 | 60 | 251 | 0.0 | 3.0 | 0.00 | 0.02 | 0.00 | 76 | 1009.8 |
| 20260505021510 | 60 | 282 | 2.0 | 3.0 | 0.00 | 0.02 | 0.00 | 75 | 1009.8 |
| 20260505021010 | 60 | 282 | 3.0 | 3.0 | 0.00 | 0.02 | 0.00 | 75 | 1009.9 |
| 20260505020514 | 60 | 264 | 1.0 | 4.0 | 0.00 | 0.02 | 0.00 | 74 | 1009.9 |
| 20260505020012 | 60 | 262 | 3.0 | 5.0 | 0.00 | 0.02 | 0.00 | 73 | 1009.9 |
| 20260505015509 | 61 | 282 | 3.0 | 3.0 | 0.00 | 0.02 | 0.00 | 72 | 1009.9 |
| 20260505015009 | 61 | 255 | 1.0 | 3.0 | 0.00 | 0.02 | 0.00 | 72 | 1010.0 |
| 20260505014509 | 61 | 251 | 1.0 | 3.0 | 0.00 | 0.02 | 0.00 | 72 | 1010.0 |
| 20260505014010 | 61 | 268 | 3.0 | 3.0 | 0.00 | 0.02 | 0.00 | 71 | 1010.0 |
| 20260505013514 | 61 | 277 | 3.0 | 4.0 | 0.00 | 0.02 | 0.00 | 71 | 1010.1 |
| 20260505013009 | 61 | 266 | 2.0 | 3.0 | 0.00 | 0.02 | 0.00 | 70 | 1010.2 |
| 20260505012509 | 61 | 297 | 0.0 | 2.0 | 0.00 | 0.02 | 0.00 | 70 | 1010.3 |
| 20260505012009 | 61 | 297 | 2.0 | 3.0 | 0.00 | 0.02 | 0.00 | 70 | 1010.2 |
| 20260505011512 | 62 | 282 | 2.0 | 2.0 | 0.00 | 0.02 | 0.00 | 71 | 1010.3 |
| 20260505011010 | 62 | 282 | 1.0 | 2.0 | 0.00 | 0.02 | 0.00 | 70 | 1010.4 |
| 20260505010511 | 62 | 282 | 2.0 | 3.0 | 0.00 | 0.02 | 0.00 | 69 | 1010.5 |
| 20260505010009 | 62 | 295 | 2.0 | 4.0 | 0.00 | 0.02 | 0.00 | 69 | 1010.5 |
| 20260505005509 | 62 | 312 | 3.0 | 4.0 | 0.00 | 0.02 | 0.00 | 68 | 1010.5 |
| 20260505005013 | 62 | 328 | 2.0 | 4.0 | 0.00 | 0.02 | 0.00 | 69 | 1010.6 |
| 20260505004510 | 62 | 322 | 2.0 | 4.0 | 0.00 | 0.02 | 0.00 | 70 | 1010.7 |
| 20260505004010 | 61 | 296 | 2.0 | 2.0 | 0.00 | 0.02 | 0.00 | 71 | 1010.7 |
| 20260505003511 | 61 | 296 | 2.0 | 3.0 | 0.00 | 0.02 | 0.00 | 72 | 1010.7 |
| 20260505003013 | 61 | 282 | 4.0 | 5.0 | 0.00 | 0.02 | 0.00 | 72 | 1010.8 |
| 20260505002510 | 61 | 299 | 2.0 | 7.0 | 0.00 | 0.02 | 0.00 | 73 | 1010.9 |
| 20260505002019 | 61 | 297 | 5.0 | 7.0 | 0.00 | 0.02 | 0.00 | 73 | 1010.9 |
| 20260505001510 | 61 | 303 | 5.0 | 5.0 | 0.00 | 0.02 | 0.00 | 73 | 1010.9 |
| 20260505001013 | 61 | 282 | 4.0 | 5.0 | 0.00 | 0.02 | 0.00 | 72 | 1011.1 |
| 20260505000511 | 61 | 319 | 4.0 | 5.0 | 0.00 | 0.02 | 0.00 | 72 | 1011.3 |
| 20260505000013 | 61 | 335 | 3.0 | 4.0 | 0.00 | 0.02 | 0.00 | 71 | 1011.3 |
| 20260504235513 | 61 | 353 | 0.0 | 13.0 | 0.00 | 0.02 | 0.00 | 72 | 1011.3 |
| 20260504235016 | 61 | 356 | 2.0 | 14.0 | 0.00 | 0.02 | 0.00 | 73 | 1011.4 |
| 20260504234516 | 60 | 325 | 4.0 | 11.0 | 0.01 | 0.02 | 0.00 | 75 | 1011.3 |
| 20260504234013 | 60 | 13 | 11.0 | 12.0 | 0.01 | 0.02 | 0.00 | 76 | 1011.3 |
| 20260504233517 | 60 | 37 | 0.0 | 7.0 | 0.01 | 0.02 | 0.00 | 76 | 1011.4 |
| 20260504233010 | 60 | 80 | 5.0 | 6.0 | 0.02 | 0.02 | 0.00 | 75 | 1011.6 |
| 20260504232513 | 60 | 54 | 4.0 | 12.0 | 0.02 | 0.02 | 0.00 | 75 | 1011.8 |
| 20260504232010 | 60 | 43 | 8.0 | 8.0 | 0.02 | 0.02 | 0.00 | 75 | 1012.0 |
| 20260504231516 | 60 | 48 | 4.0 | 8.0 | 0.02 | 0.02 | 0.00 | 75 | 1012.0 |
| 20260504231013 | 61 | 70 | 7.0 | 13.0 | 0.02 | 0.02 | 0.00 | 72 | 1012.1 |
| 20260504230520 | 62 | 94 | 9.0 | 9.0 | 0.02 | 0.02 | 0.00 | 65 | 1012.2 |
| 20260504230010 | 62 | 15 | 6.0 | 11.0 | 0.02 | 0.02 | 0.00 | 68 | 1012.0 |
| 20260504225513 | 62 | 358 | 6.0 | 8.0 | 0.01 | 0.01 | 0.00 | 67 | 1012.2 |
| 20260504225010 | 62 | 37 | 6.0 | 11.0 | 0.01 | 0.01 | 0.00 | 68 | 1012.6 |
| 20260504224513 | 62 | 43 | 1.0 | 5.0 | 0.00 | 0.00 | 0.00 | 69 | 1012.9 |
| 20260504224013 | 62 | 201 | 0.0 | 4.0 | 0.00 | 0.00 | 0.00 | 68 | 1013.4 |